East Carbon, Utah
Current Conditions -  °F | °C
As of 1:53 PM on Monday 24 Nov 2014 (Local Time) from KPUC Reporting Station
Clear Clear  
Wind Chill: 26°   Ceiling: Unl
Heat Index: 37°   Visibility: 10mi
Dew Point: 15°   Wind: 22mph
Humidity: 41%   Direction: 320°NW
Pressure: 30.25"   Gusts: 33mph
Location:  39.55°N, 110.41°W
Report Text: KPUC 242053Z AUTO 32019G29KT 10SM CLR 03/M09 A3025 RMK AO2 PK WND 31031/1957 SLP272 T00281094 53008
Loading
Personal Weather Stations






























Interactive Weather Map New forecast layout! Learn more

10-Day Weather Forecast

Advertisements
Track Severe Weather on mobile